createdAt,value
2023-05-17T00:02:37.594Z,84.57
2023-05-17T00:05:04.732Z,84.90
2023-05-17T00:07:31.404Z,84.65
2023-05-17T00:09:57.864Z,84.55
2023-05-17T00:12:24.374Z,85.01
2023-05-17T00:14:50.973Z,85.15
2023-05-17T00:17:17.475Z,84.74
2023-05-17T00:19:44.059Z,84.66
2023-05-17T00:22:10.565Z,84.73
2023-05-17T00:24:37.102Z,85.33
2023-05-17T00:27:03.800Z,86.24
2023-05-17T00:29:30.409Z,86.16
2023-05-17T00:31:56.883Z,86.30
2023-05-17T00:34:23.378Z,86.46
2023-05-17T00:36:49.878Z,87.36
2023-05-17T00:39:16.351Z,87.13
2023-05-17T00:41:42.868Z,86.82
2023-05-17T00:44:09.410Z,87.97
2023-05-17T00:46:36.023Z,87.54
2023-05-17T00:49:03.509Z,87.97
2023-05-17T00:51:30.070Z,87.66
2023-05-17T00:53:56.700Z,87.93
2023-05-17T00:56:23.972Z,88.60
2023-05-17T00:58:50.756Z,88.52
2023-05-17T01:01:17.232Z,88.39
2023-05-17T01:03:43.967Z,88.68
2023-05-17T01:06:10.917Z,89.08
2023-05-17T01:08:37.545Z,88.52
2023-05-17T01:11:16.285Z,89.04
2023-05-17T01:14:01.498Z,89.14
2023-05-17T01:16:35.943Z,89.24
2023-05-17T01:19:13.769Z,89.56
2023-05-17T01:22:08.258Z,89.73
2023-05-17T01:24:51.809Z,89.26
2023-05-17T01:27:18.967Z,90.13
2023-05-17T01:29:45.918Z,90.59
2023-05-17T01:32:13.860Z,90.72
2023-05-17T01:34:41.435Z,91.17
2023-05-17T01:37:07.915Z,91.47
2023-05-17T01:39:34.524Z,91.22
2023-05-17T01:42:23.282Z,90.96
2023-05-17T01:45:12.769Z,91.48
2023-05-17T01:47:58.617Z,92.20
2023-05-17T01:50:28.005Z,92.29
2023-05-17T01:52:59.475Z,92.39
2023-05-17T01:55:42.259Z,91.60
2023-05-17T01:58:11.021Z,92.03
2023-05-17T02:00:39.557Z,92.64
2023-05-17T02:03:06.432Z,92.25
2023-05-17T02:05:33.006Z,92.29
2023-05-17T02:07:59.522Z,92.50
2023-05-17T02:10:26.006Z,92.08
2023-05-17T02:12:52.498Z,92.03
2023-05-17T02:15:19.077Z,92.50
2023-05-17T02:17:45.894Z,92.79
2023-05-17T02:20:12.965Z,93.10
2023-05-17T02:22:39.520Z,93.43
2023-05-17T02:25:07.180Z,93.80
2023-05-17T02:27:33.837Z,93.58
2023-05-17T02:30:01.874Z,93.90
2023-05-17T02:32:29.170Z,94.22
2023-05-17T02:34:56.215Z,94.37
2023-05-17T02:37:22.698Z,94.24
2023-05-17T02:39:49.183Z,93.87
2023-05-17T02:42:15.711Z,94.29
2023-05-17T02:44:42.316Z,94.33
2023-05-17T02:47:08.942Z,94.33
2023-05-17T02:49:35.655Z,94.77
2023-05-17T02:52:02.386Z,94.94
2023-05-17T02:54:29.122Z,94.89
2023-05-17T02:56:55.859Z,94.79
2023-05-17T02:59:22.395Z,95.30
2023-05-17T03:01:50.165Z,95.72
2023-05-17T03:04:16.873Z,96.03
2023-05-17T03:06:43.384Z,96.04
2023-05-17T03:09:09.890Z,95.95
2023-05-17T03:11:36.780Z,95.74
2023-05-17T03:14:03.684Z,95.72
2023-05-17T03:16:30.177Z,95.49
2023-05-17T03:18:56.991Z,95.48
2023-05-17T03:21:23.516Z,95.65
2023-05-17T03:23:50.040Z,95.91
2023-05-17T03:26:16.804Z,96.21
2023-05-17T03:28:43.294Z,96.28
2023-05-17T03:31:09.847Z,95.83
2023-05-17T03:33:36.486Z,95.67
2023-05-17T03:36:03.328Z,95.93
2023-05-17T03:38:29.945Z,96.05
2023-05-17T03:40:56.796Z,96.43
2023-05-17T03:43:23.295Z,96.59
2023-05-17T03:45:49.837Z,96.36
2023-05-17T03:48:16.456Z,95.81
2023-05-17T03:50:43.143Z,96.24
2023-05-17T03:53:10.055Z,95.88
2023-05-17T03:55:36.650Z,96.29
2023-05-17T03:58:03.232Z,96.33
2023-05-17T04:00:29.882Z,95.78
2023-05-17T04:02:56.632Z,95.73
2023-05-17T04:05:23.148Z,95.63
2023-05-17T04:07:49.824Z,95.87
2023-05-17T04:10:16.423Z,96.22
2023-05-17T04:12:42.910Z,96.47
2023-05-17T04:15:09.944Z,96.32
2023-05-17T04:17:36.505Z,96.51
2023-05-17T04:20:06.420Z,96.76
2023-05-17T04:22:33.546Z,96.65
2023-05-17T04:25:00.370Z,96.77
2023-05-17T04:27:27.001Z,97.08
2023-05-17T04:29:53.565Z,96.74
2023-05-17T04:32:20.105Z,96.33
2023-05-17T04:34:46.664Z,96.54
2023-05-17T04:37:13.223Z,95.96
2023-05-17T04:39:40.111Z,95.84
2023-05-17T04:42:06.671Z,96.00
2023-05-17T04:44:33.273Z,96.08
2023-05-17T04:46:59.831Z,96.36
2023-05-17T04:49:26.729Z,96.35
2023-05-17T04:51:53.253Z,95.83
2023-05-17T04:54:19.771Z,95.70
2023-05-17T04:56:46.258Z,95.73
2023-05-17T04:59:12.779Z,96.12
2023-05-17T05:01:39.396Z,95.69
2023-05-17T05:04:07.338Z,96.26
2023-05-17T05:06:34.585Z,96.10
2023-05-17T05:09:01.652Z,96.29
2023-05-17T05:11:28.177Z,95.74
2023-05-17T05:13:54.762Z,96.02
2023-05-17T05:16:21.282Z,95.92
2023-05-17T05:18:48.088Z,95.40
2023-05-17T05:21:14.793Z,96.00
2023-05-17T05:23:41.287Z,96.14
2023-05-17T05:26:08.336Z,95.90
2023-05-17T05:28:34.861Z,95.85
2023-05-17T05:31:01.492Z,95.84
2023-05-17T05:33:28.203Z,95.74
2023-05-17T05:35:57.224Z,95.83
2023-05-17T05:38:23.792Z,95.74
2023-05-17T05:40:50.302Z,94.86
2023-05-17T05:43:16.824Z,95.38
2023-05-17T05:45:46.762Z,95.51
2023-05-17T05:48:14.117Z,95.49
2023-05-17T05:50:44.365Z,94.93
2023-05-17T05:53:19.404Z,95.28
2023-05-17T05:55:46.496Z,95.41
2023-05-17T05:58:12.984Z,94.56
2023-05-17T06:00:39.507Z,95.03
2023-05-17T06:03:06.430Z,95.27
2023-05-17T06:05:33.393Z,94.29
2023-05-17T06:08:00.124Z,94.39
2023-05-17T06:10:26.810Z,94.57
2023-05-17T06:12:53.572Z,94.57
2023-05-17T06:15:20.123Z,95.00
2023-05-17T06:17:46.721Z,94.70
2023-05-17T06:20:13.432Z,94.57
2023-05-17T06:22:40.053Z,94.27
2023-05-17T06:25:06.736Z,94.61
2023-05-17T06:27:33.788Z,95.03
2023-05-17T06:30:00.794Z,94.81
2023-05-17T06:32:27.593Z,95.07
2023-05-17T06:34:55.583Z,94.60
2023-05-17T06:37:22.103Z,94.17
2023-05-17T06:39:55.540Z,93.95
2023-05-17T06:42:26.475Z,94.08
2023-05-17T06:44:53.033Z,93.79
2023-05-17T06:47:19.592Z,94.21
2023-05-17T06:49:46.111Z,94.80
2023-05-17T06:52:12.664Z,95.14
2023-05-17T06:54:39.172Z,94.86
2023-05-17T06:57:05.908Z,95.21
2023-05-17T06:59:32.551Z,94.75
2023-05-17T07:02:01.847Z,94.36
2023-05-17T07:04:28.526Z,94.59
2023-05-17T07:06:55.279Z,94.37
2023-05-17T07:09:21.941Z,94.28
2023-05-17T07:11:48.519Z,94.43
2023-05-17T07:14:15.069Z,94.26
2023-05-17T07:16:41.702Z,94.34
2023-05-17T07:19:08.587Z,94.32
2023-05-17T07:21:35.806Z,94.32
2023-05-17T07:24:02.632Z,94.20
2023-05-17T07:26:29.142Z,94.09
2023-05-17T07:28:55.764Z,94.26
2023-05-17T07:31:22.258Z,94.45
2023-05-17T07:33:48.817Z,94.90
2023-05-17T07:36:15.437Z,94.44
2023-05-17T07:38:42.019Z,93.81
2023-05-17T07:41:14.049Z,93.88
2023-05-17T07:43:40.642Z,93.88
2023-05-17T07:46:07.136Z,93.10
2023-05-17T07:48:34.008Z,93.83
2023-05-17T07:51:00.694Z,93.43
2023-05-17T07:53:27.174Z,93.70
2023-05-17T07:55:53.762Z,92.98
2023-05-17T07:58:20.378Z,93.11
2023-05-17T08:00:46.937Z,94.00
2023-05-17T08:03:15.689Z,93.06
2023-05-17T08:05:43.671Z,92.77
2023-05-17T08:08:10.438Z,92.55
2023-05-17T08:10:37.895Z,93.25
2023-05-17T08:13:06.142Z,92.13
2023-05-17T08:15:32.702Z,92.30
2023-05-17T08:18:00.370Z,92.20
2023-05-17T08:20:28.017Z,92.70
2023-05-17T08:22:55.046Z,93.05
2023-05-17T08:25:21.747Z,93.04
2023-05-17T08:27:48.463Z,92.63
2023-05-17T08:30:28.120Z,92.42
2023-05-17T08:32:56.591Z,92.68
2023-05-17T08:35:24.017Z,92.80
2023-05-17T08:37:52.138Z,91.43
2023-05-17T08:40:21.227Z,91.51
2023-05-17T08:42:48.452Z,91.97
2023-05-17T08:45:15.157Z,92.45
2023-05-17T08:47:43.449Z,92.44
2023-05-17T08:50:11.232Z,90.80
2023-05-17T08:52:38.176Z,91.52
2023-05-17T08:55:06.186Z,91.73
2023-05-17T08:57:34.217Z,90.57
2023-05-17T09:00:01.031Z,91.22
2023-05-17T09:02:29.808Z,91.21
2023-05-17T09:04:57.435Z,91.46
2023-05-17T09:07:24.456Z,91.44
2023-05-17T09:09:53.304Z,91.75
2023-05-17T09:12:21.879Z,91.62
2023-05-17T09:14:49.825Z,92.39
2023-05-17T09:17:21.080Z,91.62
2023-05-17T09:19:48.862Z,91.36
2023-05-17T09:22:18.852Z,91.38
2023-05-17T09:24:45.461Z,89.59
2023-05-17T09:27:17.105Z,90.23
2023-05-17T09:29:45.420Z,90.28
2023-05-17T09:32:16.586Z,90.46
2023-05-17T09:34:45.688Z,91.56
2023-05-17T09:37:14.230Z,91.34
2023-05-17T09:39:41.161Z,91.15
2023-05-17T09:42:08.758Z,91.80
2023-05-17T09:44:57.355Z,92.46
2023-05-17T09:47:28.487Z,91.58
2023-05-17T09:50:00.579Z,91.10
2023-05-17T09:52:37.029Z,91.07
2023-05-17T09:55:03.897Z,90.79
2023-05-17T09:57:37.963Z,91.15
2023-05-17T10:00:13.236Z,91.21
2023-05-17T10:02:43.375Z,91.10
2023-05-17T10:05:12.383Z,90.70
2023-05-17T10:07:39.528Z,90.86
2023-05-17T10:10:06.883Z,90.27
2023-05-17T10:12:38.458Z,90.79
2023-05-17T10:15:05.503Z,90.31
2023-05-17T10:17:32.333Z,89.92
2023-05-17T10:19:59.374Z,89.64
2023-05-17T10:22:27.709Z,89.75
2023-05-17T10:24:56.084Z,88.81
2023-05-17T10:27:23.218Z,89.11
2023-05-17T10:29:51.492Z,88.72
2023-05-17T10:32:21.485Z,88.65
2023-05-17T10:34:58.141Z,88.25
2023-05-17T10:37:33.698Z,87.94
2023-05-17T10:40:00.685Z,88.21
2023-05-17T10:42:27.921Z,88.00
2023-05-17T10:44:54.610Z,86.51
2023-05-17T10:47:21.205Z,87.38
2023-05-17T10:49:48.220Z,86.69
2023-05-17T10:52:19.330Z,86.73
2023-05-17T10:54:48.548Z,86.84
2023-05-17T10:57:39.030Z,86.29
2023-05-17T11:00:20.270Z,86.58
2023-05-17T11:02:48.876Z,86.39
2023-05-17T11:05:27.124Z,86.06
2023-05-17T11:08:17.321Z,86.05
2023-05-17T11:11:09.624Z,84.95
2023-05-17T11:13:54.888Z,85.90
2023-05-17T11:16:24.077Z,85.29
2023-05-17T11:18:52.657Z,84.56
2023-05-17T11:21:21.328Z,83.49
2023-05-17T11:23:49.477Z,83.73
2023-05-17T11:26:21.807Z,84.21
2023-05-17T11:28:49.227Z,83.58
2023-05-17T11:31:15.877Z,85.40
2023-05-17T11:33:46.156Z,84.90
2023-05-17T11:36:19.462Z,84.46
2023-05-17T11:38:55.248Z,85.11
2023-05-17T11:41:28.286Z,84.22
2023-05-17T11:43:55.455Z,84.00
2023-05-17T11:46:23.916Z,84.61
2023-05-17T11:48:53.590Z,84.66
2023-05-17T11:51:23.875Z,84.82
2023-05-17T11:53:55.154Z,85.09
2023-05-17T11:56:29.189Z,84.52
2023-05-17T11:59:04.093Z,84.63
2023-05-17T12:01:46.006Z,85.15
2023-05-17T12:04:12.733Z,84.63
2023-05-17T12:06:39.632Z,85.08
2023-05-17T12:09:11.307Z,85.12
2023-05-17T12:11:40.937Z,84.65
2023-05-17T12:14:07.559Z,85.13
2023-05-17T12:16:36.349Z,85.99
2023-05-17T12:19:03.238Z,86.72
2023-05-17T12:21:29.992Z,85.91
2023-05-17T12:23:56.508Z,85.87
2023-05-17T12:26:23.795Z,84.48
2023-05-17T12:28:54.101Z,85.73
2023-05-17T12:31:25.492Z,86.46
2023-05-17T12:33:52.524Z,86.80
2023-05-17T12:36:19.431Z,86.92
2023-05-17T12:38:47.148Z,86.00
2023-05-17T12:41:16.053Z,85.08
2023-05-17T12:43:45.192Z,85.94
2023-05-17T12:46:18.905Z,85.92
2023-05-17T12:48:46.021Z,85.92
2023-05-17T12:51:14.343Z,85.55
2023-05-17T12:53:48.871Z,85.12
2023-05-17T12:56:21.497Z,85.21
2023-05-17T12:59:08.095Z,85.15
2023-05-17T13:01:35.957Z,85.77
2023-05-17T13:04:03.763Z,85.53
2023-05-17T13:06:52.510Z,85.67
2023-05-17T13:09:20.989Z,85.26
2023-05-17T13:11:55.052Z,85.87
2023-05-17T13:14:34.806Z,85.75
2023-05-17T13:17:02.567Z,85.97
2023-05-17T13:19:29.206Z,86.13
2023-05-17T13:21:55.936Z,85.53
2023-05-17T13:24:22.498Z,86.75
2023-05-17T13:26:49.074Z,87.12
2023-05-17T13:29:16.350Z,87.45
2023-05-17T13:31:44.194Z,87.82
2023-05-17T13:34:11.163Z,86.90
2023-05-17T13:36:38.140Z,86.88
2023-05-17T13:39:04.685Z,87.49
2023-05-17T13:41:31.166Z,87.26
2023-05-17T13:43:57.725Z,86.66
2023-05-17T13:46:24.212Z,86.67
2023-05-17T13:48:50.836Z,86.96
2023-05-17T13:51:18.030Z,87.00
2023-05-17T13:53:44.707Z,85.80
2023-05-17T13:56:11.266Z,84.55
2023-05-17T13:58:37.787Z,85.33
2023-05-17T14:01:04.584Z,84.53
2023-05-17T14:03:31.226Z,84.75
2023-05-17T14:05:57.793Z,84.38
2023-05-17T14:08:24.389Z,82.96
2023-05-17T14:10:50.895Z,82.19
2023-05-17T14:13:17.562Z,82.75
2023-05-17T14:15:44.449Z,82.94
2023-05-17T14:18:11.082Z,82.70
2023-05-17T14:20:37.748Z,81.95
2023-05-17T14:23:04.388Z,82.07
2023-05-17T14:25:30.868Z,82.18
2023-05-17T14:27:57.519Z,81.63
2023-05-17T14:30:24.534Z,82.31
2023-05-17T14:32:51.164Z,81.52
2023-05-17T14:35:17.793Z,81.34
2023-05-17T14:37:44.580Z,82.06
2023-05-17T14:40:12.166Z,82.71
2023-05-17T14:42:39.286Z,81.78
2023-05-17T14:45:06.740Z,81.39
2023-05-17T14:47:35.906Z,80.65
2023-05-17T14:50:03.725Z,80.24
2023-05-17T14:52:30.548Z,80.59
2023-05-17T14:54:57.094Z,80.78
2023-05-17T14:57:23.760Z,80.75
2023-05-17T14:59:50.397Z,80.75
2023-05-17T15:02:16.849Z,81.46
2023-05-17T15:04:43.472Z,81.25
2023-05-17T15:07:10.166Z,81.43
2023-05-17T15:09:41.518Z,81.06
2023-05-17T15:12:13.932Z,81.32
2023-05-17T15:14:40.863Z,81.49
2023-05-17T15:17:07.432Z,81.24
2023-05-17T15:19:34.132Z,81.84
2023-05-17T15:22:01.673Z,82.10
2023-05-17T15:24:29.132Z,83.44
2023-05-17T15:26:56.044Z,82.67
2023-05-17T15:29:22.573Z,82.96
2023-05-17T15:31:49.118Z,83.01
2023-05-17T15:34:15.774Z,82.90
2023-05-17T15:36:42.382Z,82.64
2023-05-17T15:39:08.957Z,83.01
2023-05-17T15:41:37.290Z,84.78
2023-05-17T15:44:05.396Z,84.20
2023-05-17T15:46:32.254Z,83.57
2023-05-17T15:48:58.877Z,83.74
2023-05-17T15:51:25.586Z,83.67
2023-05-17T15:53:52.058Z,84.01
2023-05-17T15:56:20.967Z,83.95
2023-05-17T15:58:47.732Z,84.90
2023-05-17T16:01:14.711Z,84.14
2023-05-17T16:03:41.552Z,84.45
2023-05-17T16:06:08.696Z,84.36
2023-05-17T16:08:35.222Z,84.34
2023-05-17T16:11:02.782Z,84.00
2023-05-17T16:13:29.392Z,84.82
2023-05-17T16:15:57.064Z,84.95
2023-05-17T16:18:23.676Z,84.33
2023-05-17T16:20:57.927Z,85.33
2023-05-17T16:23:24.552Z,85.14
2023-05-17T16:25:51.482Z,84.25
2023-05-17T16:28:21.641Z,83.75
2023-05-17T16:30:49.614Z,83.11
2023-05-17T16:33:16.307Z,83.20
2023-05-17T16:35:43.710Z,83.57
2023-05-17T16:38:10.592Z,82.27
2023-05-17T16:40:38.691Z,81.93
2023-05-17T16:43:05.544Z,83.20
2023-05-17T16:45:32.053Z,83.09
2023-05-17T16:47:59.238Z,82.30
2023-05-17T16:50:26.091Z,82.11
2023-05-17T16:52:52.617Z,82.87
2023-05-17T16:55:19.103Z,83.78
2023-05-17T16:57:45.770Z,84.32
2023-05-17T17:00:12.804Z,84.51
2023-05-17T17:02:39.365Z,84.61
2023-05-17T17:05:06.338Z,84.81
2023-05-17T17:07:32.919Z,85.39
2023-05-17T17:09:59.410Z,85.12
2023-05-17T17:12:26.330Z,84.10
2023-05-17T17:14:53.687Z,84.18
2023-05-17T17:17:20.524Z,83.89
2023-05-17T17:19:47.423Z,84.43
2023-05-17T17:22:14.815Z,84.99
2023-05-17T17:24:41.825Z,84.76
2023-05-17T17:27:08.375Z,84.47
2023-05-17T17:29:35.298Z,84.15
2023-05-17T17:32:02.377Z,84.30
2023-05-17T17:34:29.079Z,83.98
2023-05-17T17:36:55.799Z,83.37
2023-05-17T17:39:22.370Z,83.09
2023-05-17T17:41:48.937Z,83.80
2023-05-17T17:44:15.431Z,84.54
2023-05-17T17:46:42.435Z,84.13
2023-05-17T17:49:08.993Z,83.71
2023-05-17T17:51:35.502Z,83.84
2023-05-17T17:54:04.858Z,83.50
2023-05-17T17:56:32.789Z,83.86
2023-05-17T17:58:59.848Z,83.94
2023-05-17T18:01:26.862Z,84.45
2023-05-17T18:03:53.564Z,84.08
2023-05-17T18:06:20.326Z,84.21
2023-05-17T18:08:46.931Z,84.54
2023-05-17T18:11:13.604Z,84.43
2023-05-17T18:13:40.180Z,84.97
2023-05-17T18:16:06.901Z,84.27
2023-05-17T18:18:33.911Z,84.62
2023-05-17T18:21:00.459Z,84.64
2023-05-17T18:23:27.029Z,84.84
2023-05-17T18:25:53.588Z,84.72
2023-05-17T18:28:30.000Z,84.85
2023-05-17T18:31:04.588Z,84.94
2023-05-17T18:33:31.559Z,84.77
2023-05-17T18:35:58.174Z,84.62
2023-05-17T18:38:24.639Z,84.57
2023-05-17T18:40:51.199Z,84.47
2023-05-17T18:43:17.714Z,84.28
2023-05-17T18:45:44.244Z,84.32
2023-05-17T18:48:10.844Z,84.10
2023-05-17T18:50:37.357Z,83.67
2023-05-17T18:53:03.908Z,83.66
2023-05-17T18:55:30.421Z,84.28
2023-05-17T18:57:56.912Z,83.96
2023-05-17T19:00:23.436Z,84.29
2023-05-17T19:02:49.990Z,84.22
2023-05-17T19:05:16.568Z,84.18
2023-05-17T19:07:43.077Z,84.37
2023-05-17T19:10:10.201Z,84.33
2023-05-17T19:12:36.857Z,84.29
2023-05-17T19:15:04.117Z,84.21
2023-05-17T19:17:30.818Z,85.03
2023-05-17T19:19:57.645Z,84.90
2023-05-17T19:22:24.127Z,84.73
2023-05-17T19:24:50.740Z,84.93
2023-05-17T19:27:19.605Z,84.98
2023-05-17T19:29:47.066Z,84.84
2023-05-17T19:32:13.617Z,84.58
2023-05-17T19:34:40.211Z,84.24
2023-05-17T19:37:06.796Z,83.73
2023-05-17T19:39:33.362Z,83.39
2023-05-17T19:41:59.969Z,82.11
2023-05-17T19:44:26.551Z,81.32
2023-05-17T19:46:53.231Z,81.40
2023-05-17T19:49:19.785Z,80.72
2023-05-17T19:51:46.678Z,80.26
2023-05-17T19:54:13.185Z,80.35
2023-05-17T19:56:39.694Z,79.72
2023-05-17T19:59:06.340Z,79.46
2023-05-17T20:01:32.977Z,79.33
2023-05-17T20:03:59.616Z,79.28
2023-05-17T20:06:26.443Z,79.38
2023-05-17T20:08:52.984Z,79.18
2023-05-17T20:11:19.523Z,79.30
2023-05-17T20:13:46.098Z,79.27
2023-05-17T20:16:13.207Z,79.11
2023-05-17T20:18:44.005Z,79.38
2023-05-17T20:21:12.797Z,79.62
2023-05-17T20:23:39.514Z,79.58
2023-05-17T20:26:06.208Z,79.65
2023-05-17T20:28:32.755Z,79.50
2023-05-17T20:30:59.342Z,80.17
2023-05-17T20:33:26.453Z,79.67
2023-05-17T20:35:53.792Z,79.61
2023-05-17T20:38:20.693Z,80.07
2023-05-17T20:40:47.407Z,80.05
2023-05-17T20:43:14.518Z,79.67
2023-05-17T20:45:41.182Z,79.67
2023-05-17T20:48:08.062Z,79.43
2023-05-17T20:50:34.632Z,79.50
2023-05-17T20:53:01.202Z,80.04
2023-05-17T20:55:27.717Z,79.84
2023-05-17T20:57:54.426Z,79.59
2023-05-17T21:00:21.316Z,80.15
2023-05-17T21:02:48.007Z,80.04
2023-05-17T21:05:14.867Z,80.24
2023-05-17T21:07:41.414Z,79.95
2023-05-17T21:10:08.796Z,80.47
2023-05-17T21:12:36.000Z,80.65
2023-05-17T21:15:15.947Z,80.63
2023-05-17T21:17:43.943Z,80.68
2023-05-17T21:20:11.199Z,80.78
2023-05-17T21:22:37.899Z,81.29
2023-05-17T21:25:05.076Z,81.28
2023-05-17T21:27:33.717Z,81.95
2023-05-17T21:30:00.829Z,81.57
2023-05-17T21:32:27.395Z,81.50
2023-05-17T21:34:54.558Z,81.32
2023-05-17T21:37:21.218Z,80.56
2023-05-17T21:39:47.732Z,79.25
2023-05-17T21:42:14.269Z,77.59
2023-05-17T21:44:40.836Z,76.61
2023-05-17T21:47:07.502Z,75.41
2023-05-17T21:49:34.207Z,76.48
2023-05-17T21:52:00.837Z,75.71
2023-05-17T21:54:27.353Z,75.54
2023-05-17T21:56:53.878Z,75.70
2023-05-17T21:59:20.584Z,75.17
2023-05-17T22:01:47.241Z,75.07
2023-05-17T22:04:13.983Z,74.98
2023-05-17T22:06:40.658Z,75.64
2023-05-17T22:09:07.158Z,75.12
2023-05-17T22:11:38.176Z,73.63
2023-05-17T22:14:08.018Z,71.87
2023-05-17T22:16:36.130Z,70.38
2023-05-17T22:19:03.890Z,69.95
2023-05-17T22:21:31.886Z,70.34
2023-05-17T22:23:59.151Z,69.83
2023-05-17T22:26:27.640Z,70.91
2023-05-17T22:28:54.589Z,70.62
2023-05-17T22:31:21.202Z,70.13
2023-05-17T22:33:47.836Z,70.81
2023-05-17T22:36:14.609Z,70.60
2023-05-17T22:38:42.635Z,70.73
2023-05-17T22:41:10.084Z,70.31
2023-05-17T22:43:37.152Z,70.63
2023-05-17T22:46:04.217Z,70.10
2023-05-17T22:48:32.000Z,69.42
2023-05-17T22:51:00.867Z,69.51
2023-05-17T22:53:29.079Z,69.74
2023-05-17T22:55:55.707Z,69.17
2023-05-17T22:58:25.139Z,68.62
2023-05-17T23:00:52.254Z,68.64
2023-05-17T23:03:19.525Z,69.33
2023-05-17T23:05:46.067Z,68.53
2023-05-17T23:08:15.301Z,68.42
2023-05-17T23:10:45.515Z,68.74
2023-05-17T23:13:12.717Z,69.33
2023-05-17T23:15:40.605Z,69.49
2023-05-17T23:18:07.284Z,69.77
2023-05-17T23:20:34.866Z,69.40
2023-05-17T23:23:01.793Z,69.18
2023-05-17T23:25:29.288Z,68.99
2023-05-17T23:27:57.961Z,68.02
2023-05-17T23:30:24.739Z,68.34
2023-05-17T23:32:52.208Z,68.35
2023-05-17T23:35:18.896Z,68.14
2023-05-17T23:37:45.519Z,68.32
2023-05-17T23:40:12.791Z,68.39
2023-05-17T23:42:40.409Z,68.13
2023-05-17T23:45:09.816Z,67.64
2023-05-17T23:47:40.443Z,68.39
2023-05-17T23:50:09.285Z,68.33
2023-05-17T23:52:38.850Z,68.88
2023-05-17T23:55:08.929Z,69.26
2023-05-17T23:57:35.520Z,68.81
